Time;durP1;ratioP1;P1;durP2;ratioP2;P2;SDS_P1;SDS_P2;PMS_P1;PMS_P2;Temp;Humidity;BMP_temperature;BMP_pressure;BME280_temperature;BME280_humidity;BME280_pressure;Samples;Min_cycle;Max_cycle;Signal;HPM_P1;HPM_P2
2023/07/06 00:02:24;;;;;;;0.32;0.32;;;14.60;99.90;;;;;;5017483;28;20442;-60
2023/07/06 00:04:54;;;;;;;0.38;0.38;;;14.60;99.90;;;;;;5020115;28;20429;-60
2023/07/06 00:07:22;;;;;;;0.43;0.43;;;14.60;99.90;;;;;;5017912;28;20471;-60
2023/07/06 00:09:50;;;;;;;0.63;0.63;;;14.50;99.90;;;;;;5017036;28;20438;-60
2023/07/06 00:12:18;;;;;;;0.65;0.65;;;14.40;99.90;;;;;;5027896;28;20600;-60
2023/07/06 00:14:45;;;;;;;0.60;0.60;;;14.40;1.00;;;;;;5020819;28;20430;-60
2023/07/06 00:17:15;;;;;;;0.60;0.60;;;14.30;11.30;;;;;;5016913;28;20569;-60
2023/07/06 00:19:47;;;;;;;0.65;0.65;;;14.20;99.90;;;;;;5020970;28;20431;-60
2023/07/06 00:22:14;;;;;;;2.10;0.50;;;14.20;1.00;;;;;;5020002;28;20479;-60
2023/07/06 00:24:42;;;;;;;0.52;0.50;;;14.20;99.90;;;;;;5020255;28;20530;-60
2023/07/06 00:27:15;;;;;;;0.80;0.73;;;14.10;1.00;;;;;;5020258;28;20562;-60
2023/07/06 00:29:56;;;;;;;0.52;0.52;;;14.10;1.00;;;;;;5018386;28;20463;-60
2023/07/06 00:32:28;;;;;;;0.70;0.70;;;14.00;99.90;;;;;;5019971;28;20953;-60
2023/07/06 00:35:00;;;;;;;0.55;0.55;;;14.00;1.00;;;;;;5020186;28;20632;-60
2023/07/06 00:37:29;;;;;;;0.52;0.52;;;14.00;99.90;;;;;;5019680;28;20443;-60
2023/07/06 00:39:55;;;;;;;0.57;0.57;;;13.90;1.00;;;;;;5016950;28;21849;-60
2023/07/06 00:42:24;;;;;;;0.57;0.57;;;13.80;17.00;;;;;;5014931;28;20444;-60
2023/07/06 00:44:58;;;;;;;2.40;0.40;;;13.70;99.90;;;;;;5014446;28;20436;-60
2023/07/06 00:47:42;;;;;;;0.60;0.60;;;13.60;99.90;;;;;;5014759;28;20449;-60
2023/07/06 00:50:25;;;;;;;0.70;0.70;;;13.50;99.90;;;;;;5013614;28;20423;-60
2023/07/06 00:53:18;;;;;;;0.90;0.80;;;13.40;1.00;;;;;;5020060;28;20435;-60
2023/07/06 00:55:45;;;;;;;0.50;0.50;;;13.30;1.00;;;;;;5010730;28;21169;-60
2023/07/06 00:58:19;;;;;;;2.00;0.57;;;13.20;1.00;;;;;;5019129;28;20426;-60
2023/07/06 01:00:47;;;;;;;0.60;0.60;;;13.10;99.90;;;;;;5018702;28;20932;-60
2023/07/06 01:03:19;;;;;;;1.23;1.00;;;12.90;99.90;;;;;;5021830;28;20518;-60
2023/07/06 01:05:50;;;;;;;0.50;0.50;;;12.80;99.90;;;;;;5019486;28;21003;-60
2023/07/06 01:08:20;;;;;;;4.20;0.70;;;12.70;99.90;;;;;;5015652;28;20528;-60
2023/07/06 01:10:49;;;;;;;0.60;0.60;;;12.60;1.00;;;;;;5019305;28;20438;-60
2023/07/06 01:13:15;;;;;;;2.70;0.73;;;12.50;1.00;;;;;;5019449;28;20427;-60
2023/07/06 01:15:51;;;;;;;1.02;0.93;;;12.40;1.00;;;;;;5017963;28;20430;-60
2023/07/06 01:18:30;;;;;;;0.40;0.40;;;12.40;1.00;;;;;;5018825;28;20445;-60
2023/07/06 01:21:16;;;;;;;0.80;0.70;;;12.40;1.00;;;;;;5001809;28;20438;-60
2023/07/06 01:23:45;;;;;;;0.70;0.70;;;12.40;99.90;;;;;;5020612;28;20431;-60
2023/07/06 01:26:57;;;;;;;0.80;0.50;;;12.40;99.90;;;;;;5021332;28;20461;-60
2023/07/06 01:29:30;;;;;;;3.45;1.05;;;12.50;99.90;;;;;;4960084;28;20526;-60
2023/07/06 01:32:04;;;;;;;0.50;0.50;;;12.60;99.90;;;;;;4960039;28;20451;-60
2023/07/06 01:34:57;;;;;;;0.77;0.77;;;12.60;99.90;;;;;;4957273;28;20460;-60
2023/07/06 01:37:43;;;;;;;1.20;0.80;;;12.70;99.90;;;;;;4963246;28;20443;-60
2023/07/06 01:40:11;;;;;;;0.80;0.50;;;12.60;99.90;;;;;;4952403;28;20516;-60
2023/07/06 01:42:40;;;;;;;0.60;0.60;;;12.60;99.90;;;;;;4960966;28;20432;-60
2023/07/06 01:45:20;;;;;;;0.60;0.60;;;12.60;99.90;;;;;;4960671;28;20447;-60
2023/07/06 01:47:55;;;;;;;0.32;0.32;;;12.60;1.00;;;;;;4958527;28;20436;-60
2023/07/06 01:50:38;;;;;;;0.60;0.33;;;12.60;1.00;;;;;;4960003;28;20436;-60
2023/07/06 01:53:14;;;;;;;0.65;0.60;;;12.70;1.00;;;;;;4957204;28;21232;-60
2023/07/06 01:55:52;;;;;;;1.23;0.55;;;12.80;1.00;;;;;;4956799;28;20861;-60
2023/07/06 01:58:29;;;;;;;2.20;0.60;;;12.90;1.00;;;;;;4955471;28;20523;-60
2023/07/06 02:01:02;;;;;;;0.60;0.43;;;13.00;1.00;;;;;;4958717;28;20436;-60
2023/07/06 02:03:30;;;;;;;0.50;0.50;;;13.10;1.00;;;;;;4956738;28;20444;-60
2023/07/06 02:05:57;;;;;;;1.57;0.73;;;13.10;99.90;;;;;;4969883;28;20439;-60
2023/07/06 02:08:27;;;;;;;2.20;1.03;;;13.00;99.90;;;;;;5016543;28;20442;-60
2023/07/06 02:10:54;;;;;;;0.50;0.50;;;13.00;99.90;;;;;;5015439;28;20434;-60
2023/07/06 02:13:21;;;;;;;0.30;0.30;;;12.90;99.90;;;;;;5017967;28;20597;-60
2023/07/06 02:15:48;;;;;;;0.55;0.55;;;12.80;99.90;;;;;;5015476;28;20433;-60
2023/07/06 02:18:14;;;;;;;0.63;0.63;;;12.80;99.90;;;;;;5017170;28;20961;-60
2023/07/06 02:20:41;;;;;;;0.40;0.40;;;12.70;1.00;;;;;;5018704;28;20571;-60
2023/07/06 02:23:11;;;;;;;0.60;0.60;;;12.60;1.00;;;;;;5019723;28;20426;-60
2023/07/06 02:25:39;;;;;;;0.60;0.60;;;12.50;1.00;;;;;;5020019;28;20639;-60
2023/07/06 02:28:08;;;;;;;1.80;0.60;;;12.40;1.00;;;;;;5020193;28;20426;-60
2023/07/06 02:30:37;;;;;;;1.10;0.60;;;12.30;1.00;;;;;;5018321;28;21494;-60
2023/07/06 02:33:04;;;;;;;0.75;0.75;;;12.20;1.00;;;;;;5019661;28;20437;-60
2023/07/06 02:35:32;;;;;;;0.57;0.57;;;12.10;1.00;;;;;;5016621;28;20490;-60
2023/07/06 02:37:59;;;;;;;0.55;0.55;;;12.00;1.00;;;;;;5016619;28;20462;-60
2023/07/06 02:40:26;;;;;;;0.50;0.50;;;12.00;1.00;;;;;;5018442;28;20443;-60
2023/07/06 02:42:53;;;;;;;0.68;0.68;;;11.90;1.00;;;;;;5017164;28;20457;-60
2023/07/06 02:45:20;;;;;;;1.00;0.60;;;11.90;1.00;;;;;;5019434;28;20857;-60
2023/07/06 02:47:46;;;;;;;0.40;0.40;;;11.90;1.00;;;;;;5018820;28;20538;-60
2023/07/06 02:50:14;;;;;;;0.50;0.50;;;11.90;1.00;;;;;;5016037;28;20435;-60
2023/07/06 02:52:44;;;;;;;0.50;0.50;;;11.90;1.00;;;;;;5016202;28;20442;-60
2023/07/06 02:55:11;;;;;;;0.60;0.60;;;11.90;1.00;;;;;;5014813;28;20437;-60
2023/07/06 02:57:39;;;;;;;1.48;1.38;;;11.90;1.00;;;;;;5015185;28;21065;-60
2023/07/06 03:00:18;;;;;;;1.00;0.50;;;11.90;1.00;;;;;;5018686;28;20434;-60
2023/07/06 03:02:48;;;;;;;0.63;0.63;;;12.00;1.00;;;;;;5013633;28;20426;-60
2023/07/06 03:05:18;;;;;;;1.23;0.82;;;12.10;1.00;;;;;;5015371;28;20442;-60
2023/07/06 03:07:45;;;;;;;0.77;0.77;;;12.10;1.00;;;;;;5020592;28;20526;-60
2023/07/06 03:10:12;;;;;;;1.10;0.70;;;12.10;1.00;;;;;;5020770;28;20456;-60
2023/07/06 03:12:39;;;;;;;7.80;0.88;;;12.00;1.00;;;;;;5018010;28;20437;-61
2023/07/06 03:15:13;;;;;;;1.63;0.60;;;12.00;1.00;;;;;;5018529;28;20436;-60
2023/07/06 03:17:41;;;;;;;0.60;0.60;;;11.90;1.00;;;;;;5018716;28;20446;-60
2023/07/06 03:20:15;;;;;;;0.55;0.55;;;11.90;1.00;;;;;;5022078;28;20436;-60
2023/07/06 03:22:45;;;;;;;0.50;0.50;;;11.80;1.00;;;;;;5019935;28;20462;-60
2023/07/06 03:25:16;;;;;;;3.10;0.52;;;11.70;1.00;;;;;;5023135;28;20428;-60
2023/07/06 03:27:46;;;;;;;0.77;0.77;;;11.70;1.00;;;;;;5016770;28;20522;-60
2023/07/06 03:30:15;;;;;;;0.80;0.73;;;11.60;1.00;;;;;;5020318;28;20431;-60
2023/07/06 03:32:41;;;;;;;0.30;0.30;;;11.60;1.00;;;;;;5020707;28;20431;-60
2023/07/06 03:35:13;;;;;;;0.88;0.88;;;11.50;1.00;;;;;;5016856;28;20438;-60
2023/07/06 03:37:42;;;;;;;1.20;0.70;;;11.60;1.00;;;;;;5021311;28;20512;-60
2023/07/06 03:40:13;;;;;;;0.80;0.50;;;11.60;1.00;;;;;;5017754;28;20442;-60
2023/07/06 03:42:43;;;;;;;0.30;0.30;;;11.70;1.00;;;;;;5017637;28;20432;-60
2023/07/06 03:45:14;;;;;;;0.88;0.60;;;11.80;1.00;;;;;;5014579;28;20448;-60
2023/07/06 03:47:42;;;;;;;0.40;0.40;;;11.90;1.00;;;;;;5019339;28;20431;-60
2023/07/06 03:50:11;;;;;;;1.10;0.75;;;12.00;1.00;;;;;;5021825;28;20478;-61
2023/07/06 03:52:39;;;;;;;0.80;0.50;;;12.00;1.00;;;;;;5020173;28;20435;-60
2023/07/06 03:55:14;;;;;;;1.52;0.40;;;12.10;1.00;;;;;;5021579;28;20501;-60
2023/07/06 03:57:43;;;;;;;1.05;0.80;;;12.20;1.00;;;;;;5022403;28;20438;-60
2023/07/06 04:00:30;;;;;;;1.53;0.63;;;12.20;1.00;;;;;;5022489;28;20831;-60
2023/07/06 04:03:01;;;;;;;0.60;0.60;;;12.20;1.00;;;;;;5020984;28;20581;-60
2023/07/06 04:05:39;;;;;;;0.40;0.40;;;12.10;1.00;;;;;;5021419;28;20437;-60
2023/07/06 04:08:11;;;;;;;0.60;0.60;;;12.20;1.00;;;;;;5019755;28;20432;-60
2023/07/06 04:10:40;;;;;;;0.70;0.70;;;12.20;1.00;;;;;;5022093;28;21142;-60
2023/07/06 04:13:10;;;;;;;3.03;0.85;;;12.20;1.00;;;;;;5020903;28;20433;-60
2023/07/06 04:15:39;;;;;;;0.90;0.90;;;12.30;1.00;;;;;;5019121;28;22473;-60
2023/07/06 04:18:06;;;;;;;1.05;0.85;;;12.30;1.00;;;;;;5019280;28;20498;-60
2023/07/06 04:20:34;;;;;;;0.40;0.40;;;12.30;1.00;;;;;;5021269;28;20914;-60
2023/07/06 04:23:02;;;;;;;0.55;0.55;;;12.40;1.00;;;;;;5024525;28;20438;-60
2023/07/06 04:25:33;;;;;;;0.80;0.80;;;12.50;1.00;;;;;;5017981;28;20438;-60
2023/07/06 04:28:03;;;;;;;0.50;0.50;;;12.50;1.00;;;;;;5023227;28;20434;-60
2023/07/06 04:30:33;;;;;;;0.80;0.70;;;12.60;1.00;;;;;;5017104;28;20432;-60
2023/07/06 04:33:01;;;;;;;0.77;0.55;;;12.70;1.00;;;;;;5019654;28;20509;-60
2023/07/06 04:35:28;;;;;;;1.67;0.57;;;12.80;1.00;;;;;;5018281;28;20435;-60
2023/07/06 04:37:54;;;;;;;0.60;0.60;;;12.90;1.00;;;;;;5019654;28;20510;-60
2023/07/06 04:40:26;;;;;;;1.95;0.95;;;12.90;99.90;;;;;;5012681;28;20493;-60
2023/07/06 04:42:54;;;;;;;1.92;0.82;;;13.00;99.90;;;;;;5001510;28;20433;-60
2023/07/06 04:45:24;;;;;;;0.60;0.50;;;13.20;99.90;;;;;;5002186;28;20529;-60
2023/07/06 04:47:53;;;;;;;0.60;0.45;;;13.60;99.90;;;;;;5021106;28;20860;-60
2023/07/06 04:50:23;;;;;;;1.15;0.88;;;14.50;99.90;;;;;;5017628;28;20463;-60
2023/07/06 04:52:55;;;;;;;1.70;1.00;;;15.50;99.90;;;;;;5004318;28;20429;-60
2023/07/06 04:55:23;;;;;;;1.30;0.70;;;16.40;1.00;;;;;;4999372;28;20435;-60
2023/07/06 04:58:00;;;;;;;2.50;1.00;;;17.20;99.90;;;;;;5018307;28;20545;-60
2023/07/06 05:00:30;;;;;;;1.40;0.60;;;18.00;99.90;;;;;;5008127;28;20439;-60
2023/07/06 05:03:08;;;;;;;2.20;0.70;;;18.50;99.90;;;;;;5004688;28;20962;-60
2023/07/06 05:05:40;;;;;;;0.50;0.50;;;19.00;99.90;;;;;;4997623;28;20979;-60
2023/07/06 05:08:08;;;;;;;0.70;0.57;;;19.50;99.90;;;;;;5010935;28;20440;-60
2023/07/06 05:10:35;;;;;;;0.77;0.77;;;19.90;99.90;;;;;;5011529;28;20446;-60
2023/07/06 05:13:04;;;;;;;0.50;0.50;;;20.20;99.90;;;;;;5012877;28;20465;-61
2023/07/06 05:15:32;;;;;;;0.70;0.57;;;20.50;99.90;;;;;;5013257;28;20549;-60
2023/07/06 05:18:01;;;;;;;0.40;0.40;;;20.80;99.90;;;;;;5015995;28;20913;-61
2023/07/06 05:20:30;;;;;;;0.68;0.65;;;20.80;99.90;;;;;;5004133;28;20439;-61
2023/07/06 05:22:58;;;;;;;0.60;0.60;;;21.10;99.90;;;;;;5015276;28;20454;-60
2023/07/06 05:25:26;;;;;;;0.80;0.60;;;21.40;99.90;;;;;;5013219;28;20435;-61
2023/07/06 05:27:53;;;;;;;0.75;0.73;;;21.60;99.90;;;;;;5013999;28;20447;-60
2023/07/06 05:30:20;;;;;;;0.68;0.60;;;21.80;99.90;;;;;;5011486;28;20437;-61
2023/07/06 05:32:49;;;;;;;0.45;0.45;;;22.10;99.90;;;;;;5014186;28;20944;-61
2023/07/06 05:35:16;;;;;;;0.70;0.50;;;22.30;99.90;;;;;;5016463;28;20801;-61
2023/07/06 05:37:43;;;;;;;0.52;0.52;;;22.50;99.90;;;;;;5013621;28;20965;-60
2023/07/06 05:40:11;;;;;;;0.45;0.45;;;22.70;99.90;;;;;;5013461;28;20521;-61
2023/07/06 05:42:38;;;;;;;2.55;0.60;;;22.80;99.90;;;;;;5012184;28;20443;-61
2023/07/06 05:45:08;;;;;;;0.63;0.40;;;22.90;99.90;;;;;;5010922;28;20438;-60
2023/07/06 05:47:35;;;;;;;0.60;0.50;;;23.00;99.90;;;;;;5013379;28;20478;-61
2023/07/06 05:50:03;;;;;;;1.30;0.50;;;22.90;99.90;;;;;;5012963;28;20450;-61
2023/07/06 05:52:29;;;;;;;0.50;0.40;;;23.20;99.90;;;;;;5011324;28;20439;-61
2023/07/06 05:54:56;;;;;;;0.45;0.45;;;23.40;99.90;;;;;;4994359;28;20448;-61
2023/07/06 05:57:23;;;;;;;0.38;0.38;;;23.50;99.90;;;;;;5012050;28;20838;-61
2023/07/06 05:59:51;;;;;;;0.40;0.40;;;23.70;99.90;;;;;;5011536;28;20801;-61
2023/07/06 06:02:20;;;;;;;0.70;0.60;;;24.20;99.90;;;;;;5010450;28;20434;-61
2023/07/06 06:04:51;;;;;;;0.93;0.75;;;24.50;99.90;;;;;;5009212;28;20517;-61
2023/07/06 06:07:19;;;;;;;0.70;0.50;;;24.60;99.90;;;;;;4996200;28;20466;-61
2023/07/06 06:09:47;;;;;;;1.70;0.73;;;24.70;99.90;;;;;;5013502;28;20522;-61
2023/07/06 06:12:19;;;;;;;0.60;0.50;;;25.10;99.90;;;;;;5015151;28;20438;-61
2023/07/06 06:14:47;;;;;;;1.20;0.45;;;25.00;99.90;;;;;;5013234;28;20427;-61
2023/07/06 06:17:17;;;;;;;1.70;0.40;;;25.20;99.90;;;;;;5014123;28;20437;-61
2023/07/06 06:19:45;;;;;;;0.50;0.50;;;25.00;99.90;;;;;;5014718;28;20434;-62
2023/07/06 06:22:15;;;;;;;0.50;0.50;;;25.10;99.90;;;;;;5016586;28;20433;-61
2023/07/06 06:24:43;;;;;;;8.38;0.63;;;24.70;99.90;;;;;;5013555;28;20443;-61
2023/07/06 06:27:12;;;;;;;2.88;0.65;;;24.70;99.90;;;;;;5013948;28;20994;-62
2023/07/06 06:29:39;;;;;;;1.23;0.52;;;24.90;99.90;;;;;;5013107;28;20440;-62
2023/07/06 06:32:07;;;;;;;0.75;0.60;;;24.60;99.90;;;;;;5016294;28;20441;-61
2023/07/06 06:34:35;;;;;;;0.60;0.60;;;25.20;99.90;;;;;;5013365;28;21151;-61
2023/07/06 06:37:04;;;;;;;0.90;0.80;;;25.40;99.90;;;;;;5014378;28;20442;-61
2023/07/06 06:39:32;;;;;;;0.80;0.77;;;25.40;99.90;;;;;;5003830;28;20447;-62
2023/07/06 06:42:00;;;;;;;0.65;0.50;;;25.50;99.90;;;;;;5013868;28;20446;-62
2023/07/06 06:44:28;;;;;;;1.20;0.60;;;25.60;99.90;;;;;;5009006;28;20493;-62
2023/07/06 06:47:01;;;;;;;1.08;0.70;;;25.70;99.90;;;;;;5009103;28;20492;-62
2023/07/06 06:49:34;;;;;;;0.40;0.38;;;25.70;99.90;;;;;;5002730;28;21112;-62
2023/07/06 06:52:02;;;;;;;0.70;0.55;;;25.80;99.90;;;;;;5004021;28;21218;-62
2023/07/06 06:54:30;;;;;;;0.50;0.50;;;25.80;99.90;;;;;;5007913;28;20512;-62
2023/07/06 06:56:57;;;;;;;0.60;0.60;;;26.20;99.90;;;;;;5008358;28;20888;-63
2023/07/06 06:59:24;;;;;;;0.40;0.40;;;26.50;99.90;;;;;;5008990;28;20533;-60
2023/07/06 07:01:53;;;;;;;0.60;0.60;;;26.00;99.90;;;;;;5008655;28;20451;-61
2023/07/06 07:04:21;;;;;;;2.05;0.75;;;26.40;99.90;;;;;;5006916;28;20443;-61
2023/07/06 07:06:48;;;;;;;0.60;0.60;;;25.90;99.90;;;;;;5011937;28;20438;-61
2023/07/06 07:09:17;;;;;;;10.60;1.83;;;26.30;99.90;;;;;;5003683;28;20501;-61
2023/07/06 07:11:44;;;;;;;1.58;0.90;;;26.50;99.90;;;;;;5006607;28;20446;-60
2023/07/06 07:14:13;;;;;;;2.25;0.85;;;26.40;99.90;;;;;;5004358;28;20420;-61
2023/07/06 07:16:40;;;;;;;0.90;0.50;;;26.50;99.90;;;;;;5008704;28;22339;-61
2023/07/06 07:19:08;;;;;;;1.85;0.55;;;26.90;99.90;;;;;;4996677;28;20920;-61
2023/07/06 07:21:35;;;;;;;0.40;0.40;;;27.50;99.90;;;;;;5013793;28;20516;-61
2023/07/06 07:24:03;;;;;;;0.70;0.50;;;27.70;99.90;;;;;;5013483;28;22080;-61
2023/07/06 07:26:30;;;;;;;1.17;1.00;;;27.40;99.90;;;;;;5013623;28;20438;-60
2023/07/06 07:29:03;;;;;;;0.50;0.50;;;27.40;99.90;;;;;;5014353;28;20439;-61
2023/07/06 07:31:31;;;;;;;0.40;0.40;;;27.40;99.90;;;;;;5006138;28;20540;-61
2023/07/06 07:33:58;;;;;;;5.40;1.10;;;27.40;99.90;;;;;;5012953;28;20477;-61
2023/07/06 07:36:25;;;;;;;1.00;0.80;;;27.60;99.90;;;;;;5014660;28;20437;-61
2023/07/06 07:38:56;;;;;;;1.27;0.45;;;27.40;99.90;;;;;;5010371;28;20461;-61
2023/07/06 07:41:23;;;;;;;0.70;0.47;;;27.40;99.90;;;;;;5012093;28;20821;-61
2023/07/06 07:43:50;;;;;;;0.30;0.30;;;27.70;99.90;;;;;;5016738;28;20442;-61
2023/07/06 07:46:19;;;;;;;0.73;0.73;;;27.70;99.90;;;;;;5005051;28;20578;-60
2023/07/06 07:48:49;;;;;;;0.22;0.22;;;27.70;99.90;;;;;;5009017;28;21019;-61
2023/07/06 07:51:26;;;;;;;0.50;0.50;;;27.30;99.90;;;;;;4995527;28;20431;-62
2023/07/06 07:53:54;;;;;;;0.70;0.60;;;27.80;99.90;;;;;;5015466;28;20435;-62
2023/07/06 07:56:26;;;;;;;0.40;0.40;;;27.70;99.90;;;;;;5000346;28;20544;-62
2023/07/06 07:58:53;;;;;;;0.40;0.40;;;27.80;99.90;;;;;;5015135;28;21454;-62
2023/07/06 08:01:24;;;;;;;0.80;0.40;;;28.10;99.90;;;;;;5019176;28;20441;-61
2023/07/06 08:03:54;;;;;;;1.20;0.40;;;28.10;99.90;;;;;;5014236;28;20432;-62
2023/07/06 08:06:22;;;;;;;1.50;0.40;;;28.10;99.90;;;;;;5019397;28;20450;-62
2023/07/06 08:08:50;;;;;;;0.53;0.40;;;27.70;99.90;;;;;;4999231;28;20430;-62
2023/07/06 08:11:23;;;;;;;0.35;0.35;;;27.40;99.90;;;;;;5017410;28;20430;-62
2023/07/06 08:13:53;;;;;;;0.50;0.50;;;27.90;99.90;;;;;;5000411;28;20439;-61
2023/07/06 08:16:21;;;;;;;0.30;0.30;;;28.30;99.90;;;;;;5016614;28;20970;-61
2023/07/06 08:18:49;;;;;;;1.40;0.50;;;28.30;99.90;;;;;;5013598;28;21932;-61
2023/07/06 08:21:26;;;;;;;0.50;0.50;;;27.90;99.90;;;;;;5017678;28;20435;-62
2023/07/06 08:24:13;;;;;;;0.40;0.40;;;28.10;99.90;;;;;;5017372;28;21895;-62
2023/07/06 08:26:40;;;;;;;0.38;0.38;;;28.00;99.90;;;;;;5017995;28;20529;-62
2023/07/06 08:29:08;;;;;;;0.75;0.30;;;27.50;99.90;;;;;;5011634;28;20899;-62
2023/07/06 08:31:35;;;;;;;0.32;0.32;;;27.60;99.90;;;;;;5010730;28;20550;-62
2023/07/06 08:34:02;;;;;;;0.30;0.30;;;27.70;99.90;;;;;;5009977;28;20430;-62
2023/07/06 08:36:28;;;;;;;0.50;0.50;;;27.90;99.90;;;;;;5011679;28;20423;-62
2023/07/06 08:38:56;;;;;;;0.70;0.50;;;27.90;99.90;;;;;;5013224;28;20442;-62
2023/07/06 08:41:31;;;;;;;0.90;0.50;;;27.90;99.90;;;;;;5014643;28;20435;-62
2023/07/06 08:44:00;;;;;;;0.35;0.35;;;28.40;99.90;;;;;;5013028;28;20443;-62
2023/07/06 08:46:40;;;;;;;0.20;0.20;;;28.50;99.90;;;;;;4997650;28;20437;-61
2023/07/06 08:49:32;;;;;;;0.90;0.40;;;27.60;99.50;;;;;;5012961;28;21191;-61
2023/07/06 08:52:03;;;;;;;0.40;0.40;;;27.20;99.90;;;;;;5002395;28;20532;-61
2023/07/06 08:54:37;;;;;;;0.28;0.28;;;27.20;98.70;;;;;;4996662;28;20434;-62
2023/07/06 08:57:14;;;;;;;0.40;0.40;;;27.30;99.40;;;;;;5009730;28;20442;-61
2023/07/06 08:59:48;;;;;;;0.50;0.50;;;27.50;99.20;;;;;;5012968;28;20439;-61
2023/07/06 09:02:27;;;;;;;0.30;0.30;;;27.40;99.20;;;;;;5012630;28;20806;-61
2023/07/06 09:04:59;;;;;;;0.40;0.40;;;27.20;98.20;;;;;;4992799;28;20518;-61
2023/07/06 09:07:34;;;;;;;0.63;0.63;;;27.10;98.60;;;;;;5009079;28;20441;-60
2023/07/06 09:10:13;;;;;;;0.30;0.30;;;26.40;96.50;;;;;;5008418;28;20526;-60
2023/07/06 09:12:53;;;;;;;0.50;0.30;;;27.20;98.60;;;;;;5011867;28;20442;-60
2023/07/06 09:15:26;;;;;;;2.90;0.50;;;27.60;99.30;;;;;;5012940;28;20430;-61
2023/07/06 09:17:59;;;;;;;2.30;0.50;;;27.60;99.00;;;;;;5013406;28;20936;-61
2023/07/06 09:20:27;;;;;;;0.50;0.50;;;27.60;99.00;;;;;;5016096;28;20450;-61
2023/07/06 09:22:54;;;;;;;0.85;0.47;;;27.50;98.80;;;;;;5016083;28;20433;-60
2023/07/06 09:25:35;;;;;;;0.40;0.40;;;27.90;99.60;;;;;;5010520;28;20512;-60
2023/07/06 09:28:07;;;;;;;2.10;0.25;;;28.00;99.90;;;;;;5012551;28;20438;-60
2023/07/06 09:30:38;;;;;;;0.57;0.57;;;28.20;99.90;;;;;;5012709;28;20496;-61
2023/07/06 09:33:30;;;;;;;0.40;0.40;;;28.40;99.90;;;;;;4993588;28;20534;-61
2023/07/06 09:35:58;;;;;;;0.40;0.40;;;28.60;99.90;;;;;;5006894;28;20434;-61
2023/07/06 09:38:27;;;;;;;2.33;0.43;;;28.70;99.90;;;;;;5011541;28;20431;-61
2023/07/06 09:40:55;;;;;;;0.30;0.30;;;27.80;99.50;;;;;;5014477;28;20495;-60
2023/07/06 09:43:29;;;;;;;0.45;0.40;;;27.60;99.00;;;;;;5012952;28;20431;-61
2023/07/06 09:45:59;;;;;;;1.80;0.57;;;27.80;99.40;;;;;;5015850;28;20443;-61
2023/07/06 09:48:37;;;;;;;0.60;0.60;;;28.10;99.90;;;;;;5014750;28;20517;-61
2023/07/06 09:51:08;;;;;;;0.40;0.40;;;28.60;99.90;;;;;;5018785;28;20522;-61
2023/07/06 09:53:48;;;;;;;0.35;0.35;;;28.70;99.90;;;;;;5011997;28;20441;-63
2023/07/06 09:56:15;;;;;;;0.30;0.30;;;28.50;99.90;;;;;;5010533;28;20471;-62
2023/07/06 09:58:48;;;;;;;0.60;0.60;;;28.30;99.90;;;;;;5012071;28;20856;-62
2023/07/06 10:01:35;;;;;;;0.40;0.40;;;28.30;99.90;;;;;;5000890;28;20551;-61
2023/07/06 10:04:28;;;;;;;0.32;0.32;;;28.40;99.90;;;;;;5010209;28;20445;-62
2023/07/06 10:07:03;;;;;;;0.40;0.40;;;28.60;99.90;;;;;;5016344;28;20551;-62
2023/07/06 10:09:37;;;;;;;0.50;0.50;;;29.00;99.90;;;;;;5015455;28;20428;-61
2023/07/06 10:12:24;;;;;;;0.40;0.40;;;28.40;99.90;;;;;;5015235;28;20434;-61
2023/07/06 10:14:52;;;;;;;0.70;0.60;;;28.60;99.90;;;;;;4999746;28;20431;-61
2023/07/06 10:17:30;;;;;;;0.80;0.38;;;28.50;99.90;;;;;;5007152;28;20445;-61
2023/07/06 10:19:59;;;;;;;3.10;0.50;;;28.50;99.90;;;;;;5010472;28;21245;-61
2023/07/06 10:23:00;;;;;;;0.50;0.50;;;28.70;99.90;;;;;;5016002;28;20493;-61
2023/07/06 10:25:40;;;;;;;0.47;0.47;;;29.10;99.90;;;;;;4995322;28;20446;-62
2023/07/06 10:28:16;;;;;;;0.70;0.60;;;29.20;99.90;;;;;;5011107;28;20790;-62
2023/07/06 10:30:51;;;;;;;2.78;0.50;;;28.80;99.90;;;;;;5005124;28;20446;-62
2023/07/06 10:33:30;;;;;;;0.50;0.50;;;28.50;99.90;;;;;;5014742;28;20438;-61
2023/07/06 10:35:59;;;;;;;0.50;0.50;;;28.80;99.90;;;;;;5012216;28;23076;-62
2023/07/06 10:38:26;;;;;;;0.38;0.38;;;28.50;99.90;;;;;;5010389;28;20443;-63
2023/07/06 10:41:21;;;;;;;1.00;0.40;;;28.70;99.90;;;;;;5007556;28;20553;-63
2023/07/06 10:43:49;;;;;;;0.63;0.50;;;29.00;99.90;;;;;;5003253;28;20540;-61
2023/07/06 10:46:36;;;;;;;0.88;0.40;;;29.10;99.90;;;;;;5013390;28;20532;-61
2023/07/06 10:49:17;;;;;;;0.40;0.40;;;29.10;99.90;;;;;;5013497;28;20481;-61
2023/07/06 10:51:55;;;;;;;0.60;0.60;;;29.10;99.90;;;;;;5009795;28;20921;-62
2023/07/06 10:54:25;;;;;;;0.40;0.40;;;28.90;99.90;;;;;;4991658;28;20458;-62
2023/07/06 10:57:12;;;;;;;0.20;0.20;;;29.20;99.90;;;;;;5009632;28;20439;-62
2023/07/06 10:59:49;;;;;;;1.00;0.40;;;29.00;99.90;;;;;;5011060;28;20520;-62
2023/07/06 11:02:38;;;;;;;0.40;0.40;;;28.90;99.90;;;;;;5007314;28;20563;-62
2023/07/06 11:05:26;;;;;;;0.40;0.40;;;29.00;99.90;;;;;;5013840;28;20884;-62
2023/07/06 11:07:59;;;;;;;0.70;0.50;;;29.20;99.90;;;;;;5009458;28;20466;-62
2023/07/06 11:10:32;;;;;;;0.30;0.30;;;29.30;99.90;;;;;;5014158;28;21359;-62
2023/07/06 11:13:25;;;;;;;0.38;0.38;;;29.40;99.90;;;;;;5012960;28;20422;-61
2023/07/06 11:15:59;;;;;;;0.75;0.70;;;29.10;99.90;;;;;;5008697;28;20458;-63
2023/07/06 11:18:32;;;;;;;0.55;0.55;;;29.20;99.90;;;;;;5014571;28;20460;-61
2023/07/06 11:20:58;;;;;;;0.60;0.60;;;29.30;99.90;;;;;;4998545;28;20928;-62
2023/07/06 11:23:41;;;;;;;0.80;0.30;;;29.30;99.90;;;;;;5014191;28;20431;-60
2023/07/06 11:26:37;;;;;;;1.70;0.60;;;29.50;99.90;;;;;;5010367;28;20440;-61
2023/07/06 11:29:08;;;;;;;0.90;0.60;;;29.40;99.90;;;;;;4998797;28;20551;-60
2023/07/06 11:31:44;;;;;;;0.63;0.50;;;28.90;99.90;;;;;;5008694;28;20443;-60
2023/07/06 11:34:28;;;;;;;0.32;0.32;;;28.80;99.90;;;;;;5013276;28;20439;-61
2023/07/06 11:37:30;;;;;;;0.70;0.55;;;28.70;99.90;;;;;;5017650;28;20443;-61
2023/07/06 11:40:33;;;;;;;0.40;0.38;;;28.40;99.40;;;;;;5016655;28;20453;-62
2023/07/06 11:43:34;;;;;;;0.50;0.40;;;28.40;99.80;;;;;;5015849;28;20474;-61
2023/07/06 11:46:29;;;;;;;0.30;0.30;;;28.60;99.90;;;;;;5013101;28;20489;-61
2023/07/06 11:49:02;;;;;;;0.60;0.50;;;28.10;98.50;;;;;;5010679;28;20508;-61
2023/07/06 11:51:37;;;;;;;0.80;0.80;;;27.10;96.50;;;;;;5008295;28;20434;-61
2023/07/06 11:54:19;;;;;;;0.30;0.30;;;27.60;97.40;;;;;;5014499;28;20498;-61
2023/07/06 11:57:03;;;;;;;0.50;0.50;;;28.00;99.00;;;;;;5018156;28;20431;-60
2023/07/06 11:59:38;;;;;;;0.90;0.47;;;28.50;99.90;;;;;;5011639;28;20516;-62
2023/07/06 12:02:14;;;;;;;0.70;0.43;;;29.10;99.90;;;;;;5004853;28;20426;-61
2023/07/06 12:04:46;;;;;;;0.60;0.30;;;29.60;99.90;;;;;;5018361;28;20439;-61
2023/07/06 12:07:24;;;;;;;1.00;0.40;;;29.90;99.90;;;;;;5016168;28;20449;-61
2023/07/06 12:09:52;;;;;;;0.40;0.40;;;30.00;99.90;;;;;;5010092;28;20801;-61
2023/07/06 12:12:23;;;;;;;0.50;0.45;;;29.70;99.90;;;;;;5018376;28;20465;-63
2023/07/06 12:14:52;;;;;;;0.30;0.30;;;29.40;99.90;;;;;;5019957;28;21238;-61
2023/07/06 12:17:22;;;;;;;0.45;0.45;;;28.40;99.90;;;;;;5018835;28;20470;-61
2023/07/06 12:19:56;;;;;;;0.30;0.30;;;28.60;99.90;;;;;;5015941;28;20501;-62
2023/07/06 12:22:24;;;;;;;0.50;0.50;;;28.80;99.90;;;;;;5013673;28;20474;-62
2023/07/06 12:24:52;;;;;;;0.40;0.40;;;28.80;99.90;;;;;;5008555;28;20470;-61
2023/07/06 12:27:27;;;;;;;0.43;0.30;;;28.80;99.90;;;;;;5016414;28;20443;-62
2023/07/06 12:30:06;;;;;;;0.40;0.40;;;29.10;99.90;;;;;;5017942;28;20485;-61
2023/07/06 12:32:33;;;;;;;0.55;0.50;;;29.00;99.90;;;;;;5013812;28;21184;-61
2023/07/06 12:35:04;;;;;;;0.30;0.30;;;29.30;99.90;;;;;;5018731;28;20442;-61
2023/07/06 12:37:34;;;;;;;0.30;0.30;;;29.70;99.90;;;;;;5026109;28;20531;-61
2023/07/06 12:40:03;;;;;;;0.40;0.40;;;29.50;99.90;;;;;;5005628;28;20523;-61
2023/07/06 12:42:30;;;;;;;0.60;0.40;;;29.20;99.90;;;;;;5019470;28;20471;-61
2023/07/06 12:44:59;;;;;;;0.40;0.40;;;29.10;99.90;;;;;;5020726;28;20563;-61
2023/07/06 12:47:37;;;;;;;0.50;0.50;;;29.10;99.90;;;;;;5015835;28;20514;-61
2023/07/06 12:50:09;;;;;;;0.70;0.40;;;28.70;99.90;;;;;;5000601;28;20465;-62
2023/07/06 12:52:38;;;;;;;0.35;0.35;;;28.60;99.40;;;;;;5021119;28;20514;-61
2023/07/06 12:55:15;;;;;;;0.40;0.40;;;28.50;99.70;;;;;;5018764;28;20825;-61
2023/07/06 12:57:43;;;;;;;0.40;0.40;;;28.50;99.10;;;;;;5010156;28;20440;-61
2023/07/06 13:00:21;;;;;;;0.40;0.40;;;28.80;99.90;;;;;;5000111;28;20442;-62
2023/07/06 13:02:58;;;;;;;0.30;0.30;;;28.80;99.90;;;;;;5021166;28;20470;-61
2023/07/06 13:05:27;;;;;;;0.47;0.47;;;29.10;99.90;;;;;;5018101;28;20446;-61
2023/07/06 13:07:55;;;;;;;0.52;0.52;;;29.40;99.90;;;;;;5017722;28;20964;-62
2023/07/06 13:10:25;;;;;;;0.25;0.25;;;29.60;99.90;;;;;;5020660;28;20442;-61
2023/07/06 13:12:54;;;;;;;0.40;0.40;;;29.90;99.90;;;;;;5019498;28;20476;-61
2023/07/06 13:15:26;;;;;;;0.40;0.40;;;29.60;99.90;;;;;;5016977;28;20595;-61
2023/07/06 13:18:02;;;;;;;1.17;0.70;;;29.30;99.90;;;;;;5019174;28;20439;-62